createdAt,value
2023-03-20T00:00:34.928Z,56.97
2023-03-20T00:03:03.751Z,54.97
2023-03-20T00:05:33.499Z,54.93
2023-03-20T00:08:03.283Z,54.37
2023-03-20T00:10:37.129Z,43.93
2023-03-20T00:13:06.470Z,37.90
2023-03-20T00:15:38.582Z,46.53
2023-03-20T00:18:15.569Z,51.67
2023-03-20T00:20:43.677Z,51.50
2023-03-20T00:23:13.424Z,51.67
2023-03-20T00:25:43.249Z,52.17
2023-03-20T00:28:39.072Z,48.93
2023-03-20T00:31:15.325Z,47.80
2023-03-20T00:33:43.478Z,45.60
2023-03-20T00:36:11.930Z,53.30
2023-03-20T00:38:41.481Z,56.07
2023-03-20T00:41:22.644Z,51.23
2023-03-20T00:43:53.416Z,49.80
2023-03-20T00:46:21.912Z,41.47
2023-03-20T00:48:50.776Z,49.97
2023-03-20T00:51:19.175Z,50.47
2023-03-20T00:53:48.758Z,56.07
2023-03-20T00:56:32.713Z,59.83
2023-03-20T00:59:02.618Z,52.57
2023-03-20T01:01:32.143Z,46.67
2023-03-20T01:04:00.954Z,50.50
2023-03-20T01:06:31.434Z,53.40
2023-03-20T01:09:01.017Z,54.47
2023-03-20T01:11:29.275Z,58.83
2023-03-20T01:13:57.440Z,59.60
2023-03-20T01:16:27.212Z,50.03
2023-03-20T01:18:55.761Z,49.60
2023-03-20T01:21:24.540Z,50.07
2023-03-20T01:23:52.688Z,51.93
2023-03-20T01:26:28.309Z,51.90
2023-03-20T01:28:56.797Z,50.27
2023-03-20T01:31:25.052Z,50.67
2023-03-20T01:33:53.213Z,50.23
2023-03-20T01:36:23.773Z,53.57
2023-03-20T01:38:56.689Z,58.57
2023-03-20T01:41:28.375Z,58.87
2023-03-20T01:43:57.083Z,60.90
2023-03-20T01:46:28.491Z,62.20
2023-03-20T01:49:09.633Z,58.60
2023-03-20T01:51:37.823Z,57.97
2023-03-20T01:54:10.046Z,56.20
2023-03-20T01:56:42.860Z,55.13
2023-03-20T01:59:14.603Z,53.37
2023-03-20T02:01:43.946Z,52.10
2023-03-20T02:04:13.932Z,53.23
2023-03-20T02:06:44.995Z,59.60
2023-03-20T02:09:13.660Z,60.83
2023-03-20T02:11:44.700Z,66.03
2023-03-20T02:14:14.668Z,65.67
2023-03-20T02:16:42.897Z,55.60
2023-03-20T02:19:18.814Z,58.37
2023-03-20T02:22:16.194Z,60.83
2023-03-20T02:25:31.712Z,64.47
2023-03-20T02:28:44.114Z,62.90
2023-03-20T02:31:47.787Z,58.97
2023-03-20T02:34:45.770Z,64.77
2023-03-20T02:37:41.553Z,60.63
2023-03-20T02:40:22.822Z,58.10
2023-03-20T02:42:58.914Z,55.67
2023-03-20T02:45:30.634Z,59.47
2023-03-20T02:48:10.207Z,56.47
2023-03-20T02:50:46.062Z,61.33
2023-03-20T02:53:26.155Z,63.13
2023-03-20T02:56:01.831Z,63.10
2023-03-20T02:58:37.688Z,64.53
2023-03-20T03:01:12.124Z,59.60
2023-03-20T03:03:47.170Z,62.77
2023-03-20T03:06:23.075Z,57.07
2023-03-20T03:08:57.540Z,58.30
2023-03-20T03:11:25.753Z,57.83
2023-03-20T03:13:57.467Z,54.63
2023-03-20T03:16:30.047Z,51.53
2023-03-20T03:19:07.877Z,46.30
2023-03-20T03:21:38.398Z,42.50
2023-03-20T03:24:21.759Z,40.33
2023-03-20T03:26:54.976Z,40.90
2023-03-20T03:29:26.498Z,41.77
2023-03-20T03:31:55.135Z,40.03
2023-03-20T03:34:24.591Z,42.10
2023-03-20T03:37:01.060Z,40.60
2023-03-20T03:39:38.321Z,44.37
2023-03-20T03:42:13.351Z,43.50
2023-03-20T03:44:49.300Z,46.53
2023-03-20T03:47:21.582Z,42.23
2023-03-20T03:49:55.798Z,43.50
2023-03-20T03:52:25.929Z,44.37
2023-03-20T03:54:58.050Z,48.27
2023-03-20T03:57:32.435Z,53.23
2023-03-20T04:00:03.250Z,53.67
2023-03-20T04:02:32.007Z,55.07
2023-03-20T04:05:02.862Z,50.80
2023-03-20T04:07:31.057Z,52.40
2023-03-20T04:10:00.573Z,52.90
2023-03-20T04:12:39.771Z,55.60
2023-03-20T04:15:09.065Z,52.90
2023-03-20T04:17:37.312Z,53.57
2023-03-20T04:20:06.897Z,52.40
2023-03-20T04:22:35.111Z,52.43
2023-03-20T04:25:06.167Z,52.50
2023-03-20T04:27:34.286Z,55.23
2023-03-20T04:30:02.487Z,51.20
2023-03-20T04:32:30.616Z,54.70
2023-03-20T04:34:58.729Z,50.90
2023-03-20T04:37:26.879Z,52.00
2023-03-20T04:39:55.060Z,51.37
2023-03-20T04:42:24.591Z,51.70
2023-03-20T04:44:52.728Z,49.33
2023-03-20T04:47:20.863Z,54.93
2023-03-20T04:49:48.973Z,49.77
2023-03-20T04:52:17.190Z,49.43
2023-03-20T04:54:45.338Z,51.20
2023-03-20T04:57:13.495Z,52.60
2023-03-20T04:59:43.225Z,53.77
2023-03-20T05:02:14.946Z,52.80
2023-03-20T05:04:43.739Z,56.60
2023-03-20T05:07:11.979Z,59.37
2023-03-20T05:09:40.319Z,58.77
2023-03-20T05:12:10.130Z,55.00
2023-03-20T05:14:38.271Z,53.20
2023-03-20T05:17:07.809Z,56.03
2023-03-20T05:19:36.801Z,52.17
2023-03-20T05:22:07.340Z,50.97
2023-03-20T05:24:35.542Z,50.30
2023-03-20T05:27:03.788Z,47.93
2023-03-20T05:29:32.225Z,49.43
2023-03-20T05:32:00.399Z,48.30
2023-03-20T05:34:29.939Z,50.03
2023-03-20T05:36:58.142Z,50.17
2023-03-20T05:39:26.358Z,49.57
2023-03-20T05:41:54.532Z,48.70
2023-03-20T05:44:22.697Z,47.67
2023-03-20T05:46:50.921Z,48.80
2023-03-20T05:49:19.061Z,48.40
2023-03-20T05:51:48.643Z,46.67
2023-03-20T05:54:17.572Z,49.10
2023-03-20T05:56:46.722Z,46.53
2023-03-20T05:59:15.110Z,48.70
2023-03-20T06:01:43.240Z,48.73
2023-03-20T06:04:11.362Z,46.73
2023-03-20T06:06:39.515Z,46.27
2023-03-20T06:09:09.049Z,43.70
2023-03-20T06:11:37.785Z,44.03
2023-03-20T06:14:06.006Z,44.63
2023-03-20T06:16:34.167Z,44.33
2023-03-20T06:19:02.384Z,45.07
2023-03-20T06:21:30.621Z,44.43
2023-03-20T06:24:00.040Z,44.40
2023-03-20T06:26:29.663Z,45.20
2023-03-20T06:28:57.898Z,46.13
2023-03-20T06:31:26.225Z,46.33
2023-03-20T06:33:54.448Z,47.60
2023-03-20T06:36:22.591Z,47.80
2023-03-20T06:38:50.820Z,47.87
2023-03-20T06:41:33.414Z,46.83
2023-03-20T06:44:04.476Z,45.17
2023-03-20T06:46:32.707Z,44.77
2023-03-20T06:49:01.382Z,44.10
2023-03-20T06:51:29.576Z,45.47
2023-03-20T06:53:57.777Z,47.37
2023-03-20T06:56:26.238Z,47.17
2023-03-20T06:58:54.388Z,47.23
2023-03-20T07:01:24.486Z,48.23
2023-03-20T07:03:52.640Z,48.93
2023-03-20T07:06:21.525Z,48.47
2023-03-20T07:08:49.801Z,49.27
2023-03-20T07:11:18.629Z,48.50
2023-03-20T07:13:49.701Z,48.67
2023-03-20T07:16:18.053Z,48.53
2023-03-20T07:18:47.937Z,51.23
2023-03-20T07:21:20.139Z,48.90
2023-03-20T07:23:48.282Z,47.63
2023-03-20T07:26:17.027Z,48.50
2023-03-20T07:28:45.192Z,46.47
2023-03-20T07:31:22.015Z,47.40
2023-03-20T07:33:51.696Z,47.60
2023-03-20T07:36:20.005Z,47.70
2023-03-20T07:38:49.095Z,47.63
2023-03-20T07:41:17.264Z,46.90
2023-03-20T07:43:45.663Z,48.90
2023-03-20T07:46:13.880Z,48.70
2023-03-20T07:48:42.129Z,47.77
2023-03-20T07:51:11.641Z,47.27
2023-03-20T07:53:39.755Z,45.63
2023-03-20T07:56:08.782Z,45.73
2023-03-20T07:58:37.299Z,46.17
2023-03-20T08:01:05.823Z,43.90
2023-03-20T08:03:34.152Z,41.97
2023-03-20T08:06:04.232Z,42.37
2023-03-20T08:08:33.823Z,41.53
2023-03-20T08:11:02.000Z,42.72
2023-03-20T08:13:30.148Z,41.13
2023-03-20T08:15:58.506Z,40.07
2023-03-20T08:18:26.732Z,40.03
2023-03-20T08:20:54.891Z,38.00
2023-03-20T08:23:23.285Z,37.85
2023-03-20T08:25:54.267Z,36.17
2023-03-20T08:28:30.816Z,34.58
2023-03-20T08:31:10.010Z,35.78
2023-03-20T08:33:38.372Z,33.70
2023-03-20T08:36:07.283Z,32.00
2023-03-20T08:38:35.936Z,33.70
2023-03-20T08:41:07.247Z,34.80
2023-03-20T08:43:36.410Z,32.45
2023-03-20T08:46:05.214Z,32.42
2023-03-20T08:48:33.469Z,32.08
2023-03-20T08:51:01.909Z,32.42
2023-03-20T08:53:30.051Z,30.00
2023-03-20T08:55:58.182Z,31.48
2023-03-20T08:58:27.723Z,30.60
2023-03-20T09:00:56.128Z,31.42
2023-03-20T09:03:24.279Z,31.58
2023-03-20T09:05:53.318Z,31.20
2023-03-20T09:08:21.492Z,30.33
2023-03-20T09:10:52.211Z,30.98
2023-03-20T09:13:27.582Z,30.10
2023-03-20T09:15:58.245Z,32.28
2023-03-20T09:18:26.710Z,31.55
2023-03-20T09:20:56.496Z,33.08
2023-03-20T09:23:25.022Z,31.80
2023-03-20T09:25:53.171Z,32.80
2023-03-20T09:28:21.309Z,32.70
2023-03-20T09:30:49.447Z,33.35
2023-03-20T09:33:19.363Z,31.73
2023-03-20T09:35:48.692Z,31.90
2023-03-20T09:38:16.942Z,35.08
2023-03-20T09:40:56.979Z,34.88
2023-03-20T09:43:36.073Z,34.70
2023-03-20T09:46:16.108Z,33.58
2023-03-20T09:48:54.292Z,33.55
2023-03-20T09:51:29.331Z,33.75
2023-03-20T09:54:02.495Z,32.83
2023-03-20T09:56:32.211Z,31.02
2023-03-20T09:59:03.380Z,28.63
2023-03-20T10:01:39.591Z,27.48
2023-03-20T10:04:13.087Z,26.13
2023-03-20T10:06:41.555Z,27.23
2023-03-20T10:09:17.980Z,29.63
2023-03-20T10:12:09.315Z,28.27
2023-03-20T10:14:48.217Z,29.27
2023-03-20T10:17:30.039Z,29.25
2023-03-20T10:20:05.311Z,30.20
2023-03-20T10:22:36.803Z,30.30
2023-03-20T10:25:08.883Z,31.02
2023-03-20T10:27:41.894Z,29.55
2023-03-20T10:30:32.639Z,31.50
2023-03-20T10:33:13.678Z,29.17
2023-03-20T10:35:53.037Z,29.58
2023-03-20T10:38:32.840Z,26.73
2023-03-20T10:41:01.140Z,28.27
2023-03-20T10:43:32.984Z,29.10
2023-03-20T10:46:05.309Z,27.15
2023-03-20T10:48:38.352Z,25.98
2023-03-20T10:51:14.651Z,25.65
2023-03-20T10:53:47.839Z,27.40
2023-03-20T10:56:30.208Z,28.08
2023-03-20T10:59:02.475Z,28.33
2023-03-20T11:01:30.712Z,28.80
2023-03-20T11:03:59.355Z,27.45
2023-03-20T11:06:32.342Z,25.30
2023-03-20T11:09:13.289Z,24.25
2023-03-20T11:11:44.396Z,24.83
2023-03-20T11:14:18.805Z,20.58
2023-03-20T11:16:49.869Z,18.75
2023-03-20T11:19:20.151Z,19.73
2023-03-20T11:21:52.220Z,20.65
2023-03-20T11:24:34.656Z,20.13
2023-03-20T11:27:08.269Z,21.45
2023-03-20T11:29:37.170Z,19.33
2023-03-20T11:32:08.643Z,21.33
2023-03-20T11:34:41.092Z,19.95
2023-03-20T11:37:24.327Z,20.63
2023-03-20T11:39:59.317Z,20.25
2023-03-20T11:42:29.284Z,20.98
2023-03-20T11:45:03.055Z,21.50
2023-03-20T11:47:35.129Z,19.58
2023-03-20T11:50:05.647Z,22.60
2023-03-20T11:52:38.371Z,21.42
2023-03-20T11:55:21.305Z,22.20
2023-03-20T11:57:50.870Z,22.98
2023-03-20T12:00:22.501Z,21.70
2023-03-20T12:02:51.287Z,21.88
2023-03-20T12:05:28.299Z,23.17
2023-03-20T12:08:00.437Z,22.58
2023-03-20T12:10:33.986Z,22.42
2023-03-20T12:13:06.689Z,21.63
2023-03-20T12:15:37.982Z,21.20
2023-03-20T12:18:15.678Z,21.77
2023-03-20T12:20:51.583Z,21.65
2023-03-20T12:23:32.361Z,20.17
2023-03-20T12:26:04.782Z,19.70
2023-03-20T12:28:39.597Z,21.33
2023-03-20T12:31:18.807Z,20.33
2023-03-20T12:33:53.687Z,21.27
2023-03-20T12:36:31.234Z,20.55
2023-03-20T12:39:02.781Z,19.88
2023-03-20T12:41:38.110Z,22.00
2023-03-20T12:44:30.196Z,19.83
2023-03-20T12:47:09.796Z,19.67
2023-03-20T12:49:47.519Z,18.25
2023-03-20T12:52:27.865Z,18.15
2023-03-20T12:55:30.344Z,18.83
2023-03-20T12:58:19.934Z,18.75
2023-03-20T13:00:55.461Z,20.25
2023-03-20T13:03:36.171Z,20.67
2023-03-20T13:06:11.273Z,21.67
2023-03-20T13:09:06.366Z,20.67
2023-03-20T13:11:59.872Z,20.25
2023-03-20T13:14:36.356Z,20.17
2023-03-20T13:17:11.738Z,19.60
2023-03-20T13:19:47.612Z,20.00
2023-03-20T13:22:21.820Z,20.52
2023-03-20T13:24:54.845Z,21.65
2023-03-20T13:27:33.590Z,22.95
2023-03-20T13:30:08.509Z,22.23
2023-03-20T13:32:47.282Z,21.23
2023-03-20T13:35:26.531Z,21.90
2023-03-20T13:37:57.342Z,20.85
2023-03-20T13:40:28.344Z,21.45
2023-03-20T13:43:02.407Z,21.77
2023-03-20T13:45:35.405Z,22.40
2023-03-20T13:48:13.486Z,23.25
2023-03-20T13:50:48.201Z,19.83
2023-03-20T13:53:26.748Z,17.67
2023-03-20T13:56:04.375Z,17.30
2023-03-20T13:59:02.984Z,17.67
2023-03-20T14:01:41.960Z,14.38
2023-03-20T14:04:18.108Z,14.15
2023-03-20T14:06:57.039Z,14.70
2023-03-20T14:09:31.554Z,14.10
2023-03-20T14:12:07.530Z,14.40
2023-03-20T14:14:44.405Z,14.43
2023-03-20T14:17:19.108Z,14.68
2023-03-20T14:19:48.925Z,15.30
2023-03-20T14:22:20.050Z,15.13
2023-03-20T14:24:55.320Z,14.40
2023-03-20T14:27:42.926Z,15.05
2023-03-20T14:30:42.983Z,12.73
2023-03-20T14:33:31.183Z,12.55
2023-03-20T14:36:31.115Z,12.88
2023-03-20T14:39:08.236Z,11.27
2023-03-20T14:41:49.694Z,12.30
2023-03-20T14:44:37.131Z,12.35
2023-03-20T14:47:17.992Z,11.50
2023-03-20T14:49:55.542Z,11.30
2023-03-20T14:52:37.203Z,11.52
2023-03-20T14:55:31.566Z,11.00
2023-03-20T14:58:03.885Z,12.50
2023-03-20T15:00:37.378Z,12.52
2023-03-20T15:03:14.867Z,12.57
2023-03-20T15:05:43.450Z,12.63
2023-03-20T15:08:16.945Z,13.20
2023-03-20T15:10:50.300Z,13.85
2023-03-20T15:13:19.095Z,12.18
2023-03-20T15:15:56.087Z,12.50
2023-03-20T15:18:28.525Z,14.25
2023-03-20T15:20:57.518Z,11.27
2023-03-20T15:23:28.180Z,12.60
2023-03-20T15:25:56.497Z,11.80
2023-03-20T15:28:26.509Z,11.07
2023-03-20T15:30:58.074Z,11.10
2023-03-20T15:33:30.320Z,12.00
2023-03-20T15:35:58.840Z,12.82
2023-03-20T15:38:32.895Z,13.60
2023-03-20T15:41:01.162Z,15.68
2023-03-20T15:43:29.612Z,16.65
2023-03-20T15:46:16.789Z,17.88
2023-03-20T15:48:50.926Z,19.83
2023-03-20T15:51:22.608Z,18.58
2023-03-20T15:53:50.978Z,18.35
2023-03-20T15:56:21.138Z,17.88
2023-03-20T15:58:53.041Z,18.35
2023-03-20T16:01:23.110Z,19.77
2023-03-20T16:03:53.672Z,17.52
2023-03-20T16:06:23.110Z,17.40
2023-03-20T16:09:02.061Z,18.05
2023-03-20T16:11:39.398Z,15.82
2023-03-20T16:14:09.099Z,16.50
2023-03-20T16:16:38.176Z,17.38
2023-03-20T16:19:08.952Z,17.70
2023-03-20T16:21:40.783Z,18.58
2023-03-20T16:24:11.568Z,23.60
2023-03-20T16:26:43.841Z,23.00
2023-03-20T16:29:15.925Z,26.63
2023-03-20T16:31:53.682Z,24.08
2023-03-20T16:34:26.635Z,19.40
2023-03-20T16:36:57.728Z,20.27
2023-03-20T16:39:28.909Z,18.58
2023-03-20T16:42:23.633Z,19.30
2023-03-20T16:44:56.772Z,24.35
2023-03-20T16:47:26.346Z,23.23
2023-03-20T16:50:18.778Z,22.17
2023-03-20T16:52:51.646Z,21.65
2023-03-20T16:55:24.808Z,22.40
2023-03-20T16:57:57.289Z,22.53
2023-03-20T17:00:29.112Z,23.30
2023-03-20T17:03:15.135Z,30.30
2023-03-20T17:05:57.048Z,35.43
2023-03-20T17:08:31.576Z,27.07
2023-03-20T17:11:04.193Z,23.80
2023-03-20T17:13:32.402Z,24.87
2023-03-20T17:16:01.167Z,24.57
2023-03-20T17:18:30.993Z,25.30
2023-03-20T17:21:00.634Z,26.00
2023-03-20T17:23:29.031Z,24.00
2023-03-20T17:25:57.494Z,24.80
2023-03-20T17:28:32.979Z,24.77
2023-03-20T17:31:05.170Z,25.17
2023-03-20T17:33:34.163Z,32.43
2023-03-20T17:36:03.852Z,32.07
2023-03-20T17:38:32.473Z,33.53
2023-03-20T17:41:00.672Z,31.17
2023-03-20T17:43:29.073Z,27.60
2023-03-20T17:45:57.330Z,27.50
2023-03-20T17:48:26.951Z,28.70
2023-03-20T17:50:55.267Z,28.00
2023-03-20T17:53:28.934Z,27.70
2023-03-20T17:55:57.338Z,29.30
2023-03-20T17:58:25.597Z,30.47
2023-03-20T18:00:55.658Z,28.77
2023-03-20T18:03:23.888Z,29.77
2023-03-20T18:05:53.014Z,30.50
2023-03-20T18:08:23.232Z,29.27
2023-03-20T18:10:54.382Z,31.17
2023-03-20T18:13:24.349Z,32.97
2023-03-20T18:15:53.803Z,33.10
2023-03-20T18:18:23.964Z,33.33
2023-03-20T18:20:54.845Z,37.13
2023-03-20T18:23:23.130Z,36.50
2023-03-20T18:25:52.753Z,34.47
2023-03-20T18:28:23.220Z,36.10
2023-03-20T18:30:52.086Z,36.47
2023-03-20T18:33:25.287Z,41.50
2023-03-20T18:35:53.657Z,72.17
2023-03-20T18:38:24.526Z,59.63
2023-03-20T18:40:54.239Z,65.53
2023-03-20T18:43:22.465Z,50.23
2023-03-20T18:45:50.769Z,55.60
2023-03-20T18:48:18.969Z,52.50
2023-03-20T18:50:50.922Z,68.33
2023-03-20T18:53:19.679Z,66.10
2023-03-20T18:55:47.992Z,56.97
2023-03-20T18:58:22.256Z,48.30
2023-03-20T19:00:50.756Z,46.90
2023-03-20T19:03:23.654Z,43.90
2023-03-20T19:05:52.563Z,46.23
2023-03-20T19:08:20.875Z,46.33
2023-03-20T19:10:49.846Z,47.97
2023-03-20T19:13:21.432Z,49.37
2023-03-20T19:15:49.662Z,50.43
2023-03-20T19:18:19.571Z,50.40
2023-03-20T19:20:49.698Z,50.90
2023-03-20T19:23:19.663Z,51.93
2023-03-20T19:25:49.795Z,54.70
2023-03-20T19:28:34.605Z,55.27
2023-03-20T19:31:06.724Z,55.67
2023-03-20T19:33:35.141Z,56.27
2023-03-20T19:36:04.525Z,57.67
2023-03-20T19:38:33.770Z,57.43
2023-03-20T19:41:03.779Z,60.37
2023-03-20T19:43:33.410Z,56.90
2023-03-20T19:46:01.651Z,58.87
2023-03-20T19:48:46.870Z,60.47
2023-03-20T19:51:19.720Z,59.00
2023-03-20T19:53:48.545Z,58.77
2023-03-20T19:56:20.662Z,54.17
2023-03-20T19:58:50.959Z,58.60
2023-03-20T20:01:21.262Z,57.40
2023-03-20T20:03:50.886Z,58.53
2023-03-20T20:06:22.240Z,57.67
2023-03-20T20:08:51.109Z,54.33
2023-03-20T20:11:20.088Z,57.30
2023-03-20T20:14:08.105Z,56.53
2023-03-20T20:16:37.626Z,56.13
2023-03-20T20:19:05.977Z,57.27
2023-03-20T20:24:22.907Z,53.27
2023-03-20T20:27:07.305Z,54.90
2023-03-20T20:29:41.791Z,50.33
2023-03-20T20:32:10.052Z,50.13
2023-03-20T20:40:19.524Z,47.90
2023-03-20T20:42:51.418Z,46.50
2023-03-20T20:45:22.706Z,47.80
2023-03-20T20:47:52.372Z,43.57
2023-03-20T20:50:23.391Z,43.43
2023-03-20T20:52:52.107Z,42.03
2023-03-20T20:55:23.689Z,42.33
2023-03-20T20:57:53.576Z,40.80
2023-03-20T21:00:37.144Z,41.87
2023-03-20T21:03:09.966Z,38.27
2023-03-20T21:05:41.354Z,39.23
2023-03-20T21:08:09.499Z,40.70
2023-03-20T21:10:37.713Z,38.43
2023-03-20T21:13:05.887Z,39.90
2023-03-20T21:15:35.756Z,39.10
2023-03-20T21:18:04.229Z,36.30
2023-03-20T21:20:33.401Z,37.27
2023-03-20T21:23:02.304Z,38.80
2023-03-20T21:25:47.850Z,37.47
2023-03-20T21:28:16.581Z,35.70
2023-03-20T21:31:12.460Z,36.40
2023-03-20T21:33:36.107Z,35.20
2023-03-20T21:36:04.774Z,35.27
2023-03-20T21:41:22.818Z,35.73
2023-03-20T21:43:51.218Z,32.97
2023-03-20T22:03:28.982Z,31.80
2023-03-20T22:12:46.398Z,27.87
2023-03-20T22:23:44.665Z,28.07
2023-03-20T22:32:25.096Z,28.07
2023-03-20T22:35:03.063Z,27.90
2023-03-20T22:43:05.169Z,27.40
2023-03-20T22:46:47.215Z,27.07
2023-03-20T22:49:16.075Z,26.20
2023-03-20T22:52:04.664Z,28.03
2023-03-20T22:54:34.024Z,28.93
2023-03-20T22:57:02.339Z,27.80
2023-03-20T22:59:30.753Z,27.47
2023-03-20T23:01:58.978Z,27.87
2023-03-20T23:04:29.600Z,28.03
2023-03-20T23:06:58.245Z,27.83
2023-03-20T23:09:26.469Z,27.43
2023-03-20T23:11:56.278Z,26.13
2023-03-20T23:14:24.951Z,27.67
2023-03-20T23:16:54.743Z,27.90
2023-03-20T23:19:23.070Z,30.20
2023-03-20T23:21:51.361Z,28.37
2023-03-20T23:24:19.517Z,29.73
2023-03-20T23:26:47.728Z,29.67
2023-03-20T23:29:17.356Z,28.43
2023-03-20T23:31:45.666Z,28.33
2023-03-20T23:34:15.675Z,29.83
2023-03-20T23:36:45.032Z,30.37
2023-03-20T23:39:15.317Z,33.67
2023-03-20T23:42:11.996Z,32.17
2023-03-20T23:44:33.512Z,31.27
2023-03-20T23:47:11.237Z,29.50
2023-03-20T23:49:45.888Z,30.43
2023-03-20T23:52:14.062Z,29.47
2023-03-20T23:54:42.604Z,29.23
2023-03-20T23:57:11.341Z,30.73
2023-03-20T23:59:40.884Z,30.90
